West Baffin - southern half: Past 24 Hour Conditions

 

Rankin Inlet Airport

07:00 AM CDT 23 April 2014
This table is a summary of hourly weather conditions for the past 24 hours.
Date / Time
(CDT)
Wind(knots) Conditions Visibility(km) Pressure(kPa) Air tempC) Relative humidity(%) Dew pointC) Wind Chill
23 April 2014
7:00 N 9 Light Snow 16 102.6 -14 85 -16 -22
6:00 N 12 Light Snow 16 102.6 -14 85 -16 -23
5:00 N 14 Light Snow 13 102.5 -14 86 -15 -23
4:00 N 13 Light Snow 24 102.5 -14 85 -16 -24
3:00 N 9 Light Snow 24 102.4 -15 85 -17 -23
2:00 NNW 11 Light Snow 24 102.4 -16 86 -17 -25
1:00 N 10 Light Snow 24 102.4 -16 86 -17 -25
0:00 N 10 Light Snow 24 102.3 -15 86 -17 -24
22 April 2014
23:00 N 9 Light Snow 24 102.3 -13 86 -15 -20
22:00 N 9 Light Snow 24 102.3 -12 87 -14 -20
21:00 N 6 Light Snow 24 102.3 -11 85 -13 -18
20:00 N 8 Light Snow 24 102.3 -9 84 -11 -16
19:00 NNE 6 Light Snow 24 102.3 -8 82 -11 -13
18:00 NNE 8 Light Snow 24 102.2 -7 81 -10 -13
17:00 NE 7 Light Snow 19 102.2 -6 82 -9 -12
16:00 NE 9 Light Snow 3 102.2 -6 83 -9 -13
15:00 NE 6 Mostly Cloudy 24 102.1 -6 83 -8 -11
14:00 ENE 7 Mostly Cloudy 19 102.1 -6 80 -9 -12
13:00 ENE 10 Mostly Cloudy 24 102.1 -7 81 -10 -13
12:00 ENE 8 Light Snow 16 102.1 -6 83 -9 -12
11:00 ENE 9 Light Snow 13 102.0 -7 83 -9 -13
10:00 ENE 8 Light Snow 10 102.0 -7 84 -9 -13
9:00 ENE 8 Mostly Cloudy 23 102.0 -7 85 -9 -14
8:00 ENE 9 Mostly Cloudy 24 101.9 -8 86 -10 -14
7:00 NE 8 Mostly Cloudy 24 101.9 -8 88 -9 -14
 
Map of Arctic - Eastern Arctic marine weather areas Baker Lake Airport Chesterfield Inlet Airport Coral Harbour Airport Gjoa Haven Airport Kugaaruk Airport Rankin Inlet Airport Shepherd Bay Airport Whale Cove Airport Arctic Bay Brevoort Island Qikiqtarjuaq Airport Cape Dorset Airport Cape Dyer Cape Hooper Clyde Airport Grise Fiord Airport Hall Beach Airport Igloolik Airport Iqaluit Airport Longstaff Bluff Pangnirtung Airport Pond Inlet Airport Repulse Bay Airport Resolute Airport Resolution Island Rowley Island Airport Taloyoak Airport Wager Bay Akulivik Airport Ivujivik Airport Puvirnituq Airport Kangiqsujuaq Airport Kangirsuk Airport Quaqtaq Airport Tasiujaq Airport Cape Kakkiviak Cape Kiglapait Nain Airport Saglek Cape Mercy Kimmirut Airport Aupaluk Airport Salluit Airport Kangiqsualujjuaq Airport Fort Ross
Legend: buoyBuoy land stationLand Station